Detalii statie Sc Agroindustriala Ramnicelu SRL [ENTEN009]

Toti senzorii

Date Temperatura solului [C]Precipitatii [mm]Viteza vantului [m/s]Voltaj baterie [mV]Leaf Wetness [Min]HC Air temperature [C]HC Relative humidity [%]Punctul de roua [C]
medieminmaxsumasumaultimatimpmedieminmaxmediemediemin
2017-06-25 06:01:07 22.71 22.61 22.78 0.00 0.00 8.27 0.00 17.52 17.43 17.72 83.48 14.68
2017-06-25 07:01:05 22.50 22.42 22.57 0.00 0.00 8.29 0.00 19.01 18.14 19.87 82.93 16.05
2017-06-25 08:01:06 22.42 22.39 22.45 0.00 0.00 8.41 0.00 21.29 20.43 22.18 82.86 18.26
2017-06-25 09:01:07 22.40 22.38 22.42 0.00 0.13 8.49 0.00 23.89 22.83 25.20 75.07 19.18
2017-06-25 10:01:05 22.50 22.41 22.61 0.00 0.20 8.51 0.00 26.94 25.87 27.84 61.72 18.94
2017-06-25 11:01:06 22.88 22.70 23.10 0.00 0.40 8.53 0.00 28.84 28.19 29.51 55.38 19.00
2017-06-25 12:01:07 23.57 23.32 23.86 0.00 0.73 8.54 0.00 30.31 29.98 30.76 49.80 18.65
2017-06-25 13:01:05 24.35 24.06 24.63 0.00 0.49 8.56 0.00 30.89 30.76 31.12 47.16 18.32
2017-06-25 14:01:06 25.05 24.82 25.27 0.00 0.60 8.57 0.00 31.77 31.59 32.17 42.92 17.62
2017-06-25 15:01:05 25.60 25.41 25.75 0.00 0.73 8.58 0.00 32.23 32.11 32.30 42.89 18.02
2017-06-25 16:01:06 25.94 25.83 26.07 0.00 0.81 8.59 0.00 32.49 32.38 32.61 41.36 17.68
2017-06-25 17:01:07 26.19 26.11 26.25 0.00 0.61 8.60 0.00 31.53 31.02 32.08 45.69 18.38
2017-06-25 18:01:05 26.19 26.15 26.27 0.00 0.27 8.60 0.00 30.28 29.88 30.78 48.28 18.14
2017-06-25 19:01:06 26.01 25.91 26.08 0.00 0.00 8.60 0.00 28.63 27.74 29.43 56.76 19.18
2017-06-25 20:01:07 25.79 25.71 25.88 0.00 0.00 8.55 0.00 26.44 25.69 27.25 67.28 19.87
2017-06-25 21:01:05 25.53 25.44 25.63 0.00 0.00 8.51 0.00 24.69 23.94 25.28 71.19 19.10
2017-06-25 22:01:06 25.24 25.14 25.36 0.00 0.64 8.48 0.00 24.06 23.64 24.28 74.45 19.24
2017-06-25 23:01:05 24.96 24.85 25.07 0.00 1.23 8.46 0.00 22.60 21.90 23.28 76.43 18.25
2017-06-26 00:01:06 24.67 24.56 24.78 0.00 0.82 8.43 0.00 21.10 20.74 21.50 80.03 17.52
2017-06-26 01:01:05 24.39 24.29 24.49 0.00 0.45 8.40 0.00 20.44 20.38 20.60 80.92 17.06
2017-06-26 02:01:06 24.12 24.02 24.21 0.00 0.00 8.37 0.00 20.07 19.81 20.26 81.00 16.71
2017-06-26 03:01:07 23.86 23.76 23.94 0.00 0.00 8.35 0.00 19.50 19.30 19.70 82.40 16.42
2017-06-26 04:01:05 23.63 23.56 23.71 0.00 0.00 8.33 0.00 19.01 18.81 19.20 83.37 16.12
2017-06-26 05:01:06 23.40 23.32 23.49 0.00 0.00 8.31 0.00 18.51 18.35 18.66 84.05 15.76
2017-06-26 06:01:07 23.21 23.15 23.28 0.00 0.00 8.28 0.00 18.63 18.36 18.94 84.30 15.93
2017-06-26 07:01:05 23.04 22.96 23.13 0.00 0.58 8.31 0.00 20.01 19.34 20.84 82.72 16.98
2017-06-26 08:01:06 22.89 22.86 22.92 0.00 0.63 8.38 0.00 21.90 21.22 22.82 76.73 17.63
2017-06-26 09:01:07 22.82 22.80 22.87 0.00 1.22 8.49 0.00 23.98 23.24 24.72 70.48 18.28
2017-06-26 10:01:07 22.87 22.80 22.96 0.00 0.54 8.51 0.00 26.20 25.20 27.27 65.44 19.20
2017-06-26 11:01:05 23.22 23.03 23.46 0.00 1.17 8.53 0.00 28.30 27.80 28.89 60.15 19.82
2017-06-26 12:01:06 23.87 23.58 24.18 0.00 1.51 8.54 0.00 29.76 29.19 30.23 56.32 20.12
2017-06-26 13:01:07 24.64 24.35 24.92 0.00 1.98 8.56 0.00 30.98 30.84 31.17 50.66 19.54
2017-06-26 14:01:06 25.30 25.05 25.51 0.00 2.08 8.57 0.00 31.44 31.20 31.84 48.78 19.36
2017-06-26 15:01:06 25.79 25.60 25.95 0.00 1.95 8.58 0.00 31.95 31.83 32.14 46.77 19.14
2017-06-26 16:01:07 26.14 26.04 26.24 0.00 1.83 8.59 0.00 32.21 32.08 32.34 46.07 19.14
2017-06-26 17:01:07 26.32 26.26 26.34 0.00 1.93 8.60 0.00 31.72 31.50 31.97 45.39 18.47
2017-06-26 18:01:07 26.29 26.22 26.34 0.00 2.14 8.60 0.00 30.81 30.26 31.21 48.89 18.81
2017-06-26 19:01:07 26.06 25.96 26.17 0.00 3.28 8.60 0.00 28.69 27.94 29.43 57.68 19.52
2017-06-26 20:01:06 25.78 25.66 25.89 0.00 1.74 8.54 0.00 26.62 25.87 27.44 62.62 18.89
2017-06-26 21:01:07 25.49 25.36 25.60 0.00 0.89 8.51 0.00 24.73 24.12 25.41 66.23 18.00
2017-06-26 22:01:05 25.17 25.07 25.28 0.00 1.01 8.48 0.00 23.22 22.80 23.77 70.61 17.58
2017-06-26 23:01:06 24.88 24.80 24.99 0.00 0.00 8.45 0.00 22.00 21.79 22.34 75.34 17.43
2017-06-27 00:01:07 24.62 24.52 24.70 0.00 0.00 8.42 0.00 21.27 20.86 21.66 78.51 17.38
2017-06-27 01:01:05 24.38 24.29 24.47 0.00 0.00 8.39 0.00 20.48 20.24 20.62 81.38 17.18
2017-06-27 02:01:06 24.14 24.09 24.23 0.00 0.00 8.37 0.00 19.85 19.64 20.06 83.20 16.92
2017-06-27 03:01:07 23.91 23.84 24.01 0.00 0.00 8.34 2.36 19.21 19.05 19.34 83.98 16.44
2017-06-27 04:01:05 23.70 23.63 23.79 0.00 0.00 8.32 3.43 18.48 18.16 18.82 83.80 15.69
2017-06-27 05:01:06 23.48 23.41 23.58 0.00 0.00 8.30 8.00 18.05 17.99 18.09 82.81 15.08
2017-06-27 06:01:07 23.33 23.30 23.38 0.00 0.00 8.28 9.36 18.44 18.19 18.70 81.93 15.30
2017-12-04 10:01:02 0.00 0.00 0.00 0.00 0.00 0.00 0.00 0.00 0.00 0.00 0.00 -1.00